Chita, Russia
Current Conditions -  °F | °C
As of 5:00 PM on Monday 24 Nov 2014 (Local Time) from UIAA Reporting Station
Overcast Overcast  
Wind Chill:   Ceiling: 20000
Heat Index:   Visibility: 6mi
Dew Point:   Wind: 0mph
Humidity: 67%   Direction: NA
Pressure: 29.74"   Gusts: NA
Location:  52.05°N, 113.46°E
Report Text: UIAA 240800Z 00000MPS 9999 SCT100 OVC200 M13/M18 Q1007 NOSIGRMK QFE697 29CLRD70
Loading
Personal Weather Stations






























Interactive Weather Map New forecast layout! Learn more

10-Day Weather Forecast

Advertisements
Track Severe Weather on mobile